BST,Max TemperatureF,Mean TemperatureF,Min TemperatureF,Max Dew PointF,MeanDew PointF,Min DewpointF,Max Humidity, Mean Humidity, Min Humidity, Max Sea Level PressureIn, Mean Sea Level PressureIn, Min Sea Level PressureIn, Max VisibilityMiles, Mean VisibilityMiles, Min VisibilityMiles, Max Wind SpeedMPH, Mean Wind SpeedMPH, Max Gust SpeedMPH,PrecipitationIn, CloudCover, Events, WindDirDegrees
2013-8-1,93,77,61,66,62,57,100,62,28,29.95,29.81,29.68,17,8,5,18,10,21,0.00,3,,164
2013-8-2,79,71,62,63,59,54,94,71,37,29.83,29.79,29.76,17,7,6,16,10,28,0.12,4,Rain-Thunderstorm,213
2013-8-3,76,68,59,61,56,52,100,71,32,30.09,29.97,29.83,19,8,6,20,12,24,0.00,2,Rain,218
2013-8-4,76,66,57,59,56,51,100,71,36,30.12,30.08,30.04,19,7,6,16,10,26,0.00,2,,201
2013-8-5,74,67,60,61,58,53,95,78,43,30.04,29.89,29.77,19,7,3,18,8,28,0.43,3,Rain,194
2013-8-6,72,62,53,57,51,46,94,65,31,30.05,30.00,29.92,19,9,6,10,6,,0.01,2,,273
2013-8-7,73,66,58,55,50,45,88,58,29,30.04,29.96,29.92,19,10,6,12,6,,0.00,1,,49
2013-8-8,77,66,54,55,50,45,82,57,27,30.12,30.10,30.04,19,10,6,15,5,,0.00,1,,260
2013-8-9,76,68,60,63,54,46,100,64,31,30.18,30.09,30.04,13,6,4,15,10,26,0.02,4,Rain,265
2013-8-10,73,64,55,50,47,43,77,54,30,30.21,30.18,30.15,19,11,6,15,7,24,0.00,1,,280
2013-8-11,75,68,60,57,51,45,77,57,28,30.14,30.06,30.01,18,8,6,18,10,,0.00,2,Rain,263
2013-8-12,69,62,56,52,47,41,88,58,29,30.09,30.04,30.01,19,9,6,16,8,,0.00,1,,282
2013-8-13,69,60,51,55,50,43,88,69,32,30.22,30.17,30.09,19,8,6,15,8,,0.01,2,Rain,282
2013-8-14,73,62,52,61,54,52,94,76,39,30.24,30.20,30.15,19,7,3,16,6,22,0.03,4,Rain,238
2013-8-15,75,68,61,64,61,57,100,80,55,30.15,30.08,30.01,7,6,3,20,10,32,0.00,4,Rain,221
2013-8-16,74,68,62,63,61,58,94,83,62,30.01,29.97,29.95,19,7,6,14,10,,0.03,3,Rain,214
2013-8-17,69,63,57,61,57,54,94,80,51,30.01,29.90,29.74,19,8,6,21,10,33,0.00,4,Rain,224
2013-8-18,75,68,60,63,56,50,94,69,40,29.92,29.82,29.74,19,8,6,17,12,23,0.00,2,Rain,243
2013-8-19,74,64,53,52,48,45,88,58,30,30.33,30.12,29.92,19,8,6,12,8,,0.00,3,,297
2013-8-20,76,64,53,54,49,45,88,58,27,30.37,30.34,30.30,19,10,6,13,5,21,0.00,3,,250
2013-8-21,82,68,54,57,52,48,88,59,23,30.32,30.23,30.15,19,11,6,10,6,,0.03,1,Rain,234
2013-8-22,75,68,61,64,62,59,100,85,63,30.18,30.11,30.06,19,7,3,10,5,,0.02,2,Rain,126
2013-8-23,81,70,60,61,58,52,100,68,32,30.06,29.96,29.86,14,5,2,13,9,,0.00,1,,108
2013-8-24,68,64,59,63,60,54,94,85,73,29.89,29.85,29.83,16,4,1,10,6,,0.20,5,Rain,309
2013-8-25,76,66,55,63,57,52,94,76,43,30.06,29.92,29.83,19,7,4,14,8,,0.03,4,Rain,17
2013-8-26,78,68,58,61,55,48,94,66,31,30.11,30.07,30.04,19,7,3,10,6,,0.00,4,,48
2013-8-27,74,64,53,55,50,43,100,62,27,30.13,30.08,30.06,19,7,0,8,4,,0.00,3,Fog,360
2013-8-28,76,65,54,54,51,46,100,60,26,30.24,30.19,30.12,19,9,1,8,4,23,0.00,3,Fog,352
2013-8-29,76,66,57,57,54,50,88,66,32,30.21,30.17,30.12,19,7,3,13,6,,0.00,1,,263
2013-8-30,77,68,59,59,57,54,94,70,37,30.16,30.11,30.06,19,8,6,20,9,28,0.00,2,,249
2013-8-31,70,64,57,59,46,37,94,55,24,30.42,30.28,30.12,19,9,6,10,7,,0.00,1,,334